Au Sable Forks, New York
Current Conditions -  °F | °C
As of 9:53 AM on Friday 19 Dec 2014 (Local Time) from KPBG Reporting Station
Overcast Overcast  
Wind Chill: 17°   Ceiling: 2400
Heat Index: 25°   Visibility: 10mi
Dew Point: 17°   Wind: 7mph
Humidity: 72%   Direction: 360°N
Pressure: 30.07"   Gusts: NA
Location:  44.44°N, 73.67°W
Report Text: KPBG 191453Z AUTO 36006KT 10SM OVC024 M04/M08 A3007 RMK AO2 SLP187 T10391083 51017
Loading
Personal Weather Stations






























Interactive Weather Map New forecast layout! Learn more

10-Day Weather Forecast

Advertisements
Track Severe Weather on mobile